createdAt,value
2017-06-15T00:02:14.469Z,45.90
2017-06-15T00:04:42.521Z,46.20
2017-06-15T00:07:10.597Z,46.30
2017-06-15T00:09:39.041Z,46.30
2017-06-15T00:12:07.092Z,45.90
2017-06-15T00:14:35.185Z,46.60
2017-06-15T00:17:03.237Z,46.50
2017-06-15T00:19:31.291Z,46.50
2017-06-15T00:22:00.135Z,47.80
2017-06-15T00:24:28.181Z,47.00
2017-06-15T00:26:56.229Z,47.10
2017-06-15T00:29:25.073Z,48.00
2017-06-15T00:31:53.120Z,47.30
2017-06-15T00:34:21.170Z,47.30
2017-06-15T00:36:49.238Z,47.50
2017-06-15T00:39:18.057Z,48.50
2017-06-15T00:41:46.133Z,47.40
2017-06-15T00:44:14.577Z,47.50
2017-06-15T00:46:43.394Z,48.50
2017-06-15T00:49:11.513Z,48.40
2017-06-15T00:51:39.953Z,49.00
2017-06-15T00:54:08.397Z,49.30
2017-06-15T00:56:37.237Z,49.70
2017-06-15T00:59:05.285Z,48.80
2017-06-15T01:01:33.337Z,49.00
2017-06-15T01:04:01.417Z,49.20
2017-06-15T01:06:29.466Z,49.70
2017-06-15T01:08:58.286Z,50.00
2017-06-15T01:11:26.766Z,49.50
2017-06-15T01:13:54.814Z,49.10
2017-06-15T01:16:23.658Z,49.80
2017-06-15T01:18:51.709Z,49.40
2017-06-15T01:21:19.798Z,50.10
2017-06-15T01:23:47.858Z,50.30
2017-06-15T01:26:15.914Z,50.00
2017-06-15T01:28:43.990Z,50.60
2017-06-15T01:31:12.046Z,50.50
2017-06-15T01:33:40.513Z,50.70
2017-06-15T01:36:08.566Z,50.90
2017-06-15T01:38:36.649Z,50.60
2017-06-15T01:41:04.705Z,51.20
2017-06-15T01:43:32.766Z,51.50
2017-06-15T01:46:00.846Z,52.10
2017-06-15T01:48:29.292Z,52.10
2017-06-15T01:50:57.798Z,52.40
2017-06-15T01:53:26.250Z,52.30
2017-06-15T01:55:54.306Z,51.90
2017-06-15T01:58:22.386Z,52.00
2017-06-15T02:00:50.442Z,51.60
2017-06-15T02:03:18.554Z,51.90
2017-06-15T02:05:46.997Z,51.30
2017-06-15T02:08:15.058Z,51.80
2017-06-15T02:10:43.921Z,53.10
2017-06-15T02:13:11.971Z,51.80
2017-06-15T02:15:40.044Z,52.00
2017-06-15T02:18:08.097Z,51.80
2017-06-15T02:20:36.174Z,51.90
2017-06-15T02:23:04.259Z,52.60
2017-06-15T02:25:32.318Z,52.90
2017-06-15T02:28:00.406Z,52.80
2017-06-15T02:30:28.471Z,52.60
2017-06-15T02:32:56.522Z,52.60
2017-06-15T02:35:24.597Z,52.50
2017-06-15T02:37:52.664Z,52.60
2017-06-15T02:40:21.129Z,52.90
2017-06-15T02:42:49.182Z,52.70
2017-06-15T02:45:18.034Z,53.30
2017-06-15T02:47:46.083Z,53.20
2017-06-15T02:50:15.126Z,52.60
2017-06-15T02:52:43.178Z,52.60
2017-06-15T02:55:11.259Z,52.80
2017-06-15T02:57:39.331Z,52.60
2017-06-15T03:00:07.422Z,52.60
2017-06-15T03:02:35.475Z,53.00
2017-06-15T03:05:03.538Z,52.90
2017-06-15T03:07:31.610Z,52.50
2017-06-15T03:09:59.665Z,52.60
2017-06-15T03:12:28.154Z,52.60
2017-06-15T03:14:56.213Z,52.30
2017-06-15T03:17:25.038Z,52.20
2017-06-15T03:19:53.114Z,52.30
2017-06-15T03:22:21.171Z,52.70
2017-06-15T03:24:49.242Z,53.30
2017-06-15T03:27:17.306Z,52.70
2017-06-15T03:29:45.390Z,52.80
2017-06-15T03:32:13.453Z,53.10
2017-06-15T03:34:41.516Z,53.30
2017-06-15T03:37:09.602Z,53.20
2017-06-15T03:39:37.655Z,52.80
2017-06-15T03:42:05.710Z,53.50
2017-06-15T03:44:33.789Z,53.70
2017-06-15T03:47:01.847Z,53.50
2017-06-15T03:49:29.924Z,53.30
2017-06-15T03:51:58.002Z,53.30
2017-06-15T03:54:26.082Z,53.40
2017-06-15T03:56:54.138Z,53.50
2017-06-15T03:59:22.223Z,53.10
2017-06-15T04:01:50.279Z,53.40
2017-06-15T04:04:18.587Z,53.70
2017-06-15T04:06:46.664Z,53.30
2017-06-15T04:09:14.723Z,53.60
2017-06-15T04:11:42.793Z,53.90
2017-06-15T04:14:10.850Z,53.60
2017-06-15T04:16:38.927Z,53.50
2017-06-15T04:19:06.986Z,54.00
2017-06-15T04:21:35.465Z,54.00
2017-06-15T04:24:03.522Z,54.40
2017-06-15T04:26:32.345Z,54.00
2017-06-15T04:29:00.428Z,53.70
2017-06-15T04:31:28.482Z,53.50
2017-06-15T04:33:56.555Z,53.40
2017-06-15T04:36:24.610Z,53.70
2017-06-15T04:38:52.687Z,53.40
2017-06-15T04:41:20.746Z,53.70
2017-06-15T04:43:48.836Z,53.00
2017-06-15T04:46:16.886Z,53.30
2017-06-15T04:48:45.711Z,54.40
2017-06-15T04:51:13.785Z,53.00
2017-06-15T04:53:42.240Z,53.50
2017-06-15T04:56:10.326Z,53.80
2017-06-15T04:58:38.383Z,52.60
2017-06-15T05:01:06.438Z,52.70
2017-06-15T05:03:34.911Z,53.10
2017-06-15T05:06:03.729Z,54.00
2017-06-15T05:08:31.806Z,54.00
2017-06-15T05:10:59.882Z,53.90
2017-06-15T05:13:27.937Z,53.60
2017-06-15T05:15:56.031Z,52.50
2017-06-15T05:18:24.478Z,51.40
2017-06-15T05:20:52.539Z,51.20
2017-06-15T05:23:21.386Z,52.00
2017-06-15T05:25:49.463Z,51.40
2017-06-15T05:28:17.545Z,51.60
2017-06-15T05:30:46.030Z,50.60
2017-06-15T05:33:14.487Z,50.00
2017-06-15T05:35:43.326Z,49.90
2017-06-15T05:38:11.405Z,49.90
2017-06-15T05:40:40.250Z,50.80
2017-06-15T05:43:08.306Z,49.40
2017-06-15T05:45:36.386Z,48.50
2017-06-15T05:48:04.439Z,49.60
2017-06-15T05:50:32.531Z,49.20
2017-06-15T05:53:00.582Z,48.40
2017-06-15T05:55:28.637Z,47.90
2017-06-15T05:57:56.724Z,48.60
2017-06-15T06:00:24.769Z,49.00
2017-06-15T06:02:52.862Z,48.50
2017-06-15T06:05:20.916Z,49.00
2017-06-15T06:07:49.738Z,47.20
2017-06-15T06:10:17.832Z,47.10
2017-06-15T06:12:45.886Z,47.60
2017-06-15T06:15:14.354Z,46.60
2017-06-15T06:17:42.802Z,46.50
2017-06-15T06:20:11.643Z,47.90
2017-06-15T06:22:39.698Z,47.10
2017-06-15T06:25:07.791Z,45.70
2017-06-15T06:27:35.845Z,46.70
2017-06-15T06:30:03.906Z,44.90
2017-06-15T06:32:31.989Z,44.00
2017-06-15T06:35:00.046Z,44.80
2017-06-15T06:37:28.102Z,44.50
2017-06-15T06:39:56.942Z,43.20
2017-06-15T06:42:25.005Z,43.10
2017-06-15T06:44:53.094Z,43.80
2017-06-15T06:47:21.146Z,43.40
2017-06-15T06:49:49.206Z,42.20
2017-06-15T06:52:17.285Z,42.60
2017-06-15T06:54:45.339Z,42.80
2017-06-15T06:57:13.394Z,42.80
2017-06-15T06:59:42.238Z,41.50
2017-06-15T07:02:10.329Z,41.50
2017-06-15T07:04:38.386Z,42.70
2017-06-15T07:07:06.441Z,42.80
2017-06-15T07:09:34.521Z,41.40
2017-06-15T07:12:02.573Z,40.60
2017-06-15T07:14:30.658Z,40.40
2017-06-15T07:16:58.715Z,41.20
2017-06-15T07:19:26.814Z,42.00
2017-06-15T07:21:54.890Z,41.00
2017-06-15T07:24:22.970Z,40.90
2017-06-15T07:26:51.055Z,41.30
2017-06-15T07:29:19.137Z,41.40
2017-06-15T07:31:47.967Z,41.70
2017-06-15T07:34:16.022Z,39.80
2017-06-15T07:36:44.098Z,40.50
2017-06-15T07:39:12.222Z,38.90
2017-06-15T07:41:40.303Z,37.60
2017-06-15T07:44:08.350Z,38.30
2017-06-15T07:46:36.441Z,39.00
2017-06-15T07:49:04.504Z,39.40
2017-06-15T07:51:32.603Z,39.20
2017-06-15T07:54:00.664Z,40.20
2017-06-15T07:56:28.722Z,38.20
2017-06-15T07:58:56.827Z,37.60
2017-06-15T08:01:24.882Z,38.20
2017-06-15T08:03:52.938Z,37.50
2017-06-15T08:06:21.048Z,38.10
2017-06-15T08:08:49.862Z,36.90
2017-06-15T08:11:17.922Z,36.80
2017-06-15T08:13:46.001Z,37.00
2017-06-15T08:16:14.081Z,36.40
2017-06-15T08:18:42.158Z,37.70
2017-06-15T08:21:10.215Z,36.70
2017-06-15T08:23:38.265Z,37.80
2017-06-15T08:26:06.342Z,36.60
2017-06-15T08:28:34.418Z,36.50
2017-06-15T08:31:02.471Z,34.80
2017-06-15T08:33:31.326Z,34.30
2017-06-15T08:35:59.378Z,34.20
2017-06-15T08:38:27.430Z,35.60
2017-06-15T08:40:55.502Z,34.60
2017-06-15T08:43:23.565Z,35.10
2017-06-15T08:45:51.713Z,35.20
2017-06-15T08:48:19.866Z,34.40
2017-06-15T08:50:47.942Z,33.50
2017-06-15T08:53:15.995Z,32.40
2017-06-15T08:55:44.155Z,33.60
2017-06-15T08:58:12.250Z,33.40
2017-06-15T09:00:40.306Z,33.20
2017-06-15T09:03:08.359Z,31.40
2017-06-15T09:05:36.436Z,31.90
2017-06-15T09:08:04.486Z,29.70
2017-06-15T09:10:32.570Z,29.80
2017-06-15T09:13:00.666Z,30.30
2017-06-15T09:15:28.719Z,28.80
2017-06-15T09:17:56.820Z,28.30
2017-06-15T09:20:24.869Z,28.10
2017-06-15T09:22:52.926Z,26.90
2017-06-15T09:25:21.413Z,27.00
2017-06-15T09:27:49.557Z,27.40
2017-06-15T09:30:18.385Z,27.80
2017-06-15T09:32:46.470Z,28.00
2017-06-15T09:35:14.590Z,28.00
2017-06-15T09:37:42.659Z,27.70
2017-06-15T09:40:10.765Z,25.20
2017-06-15T09:42:38.810Z,25.80
2017-06-15T09:45:07.674Z,27.20
2017-06-15T09:47:35.726Z,25.40
2017-06-15T09:50:04.178Z,26.80
2017-06-15T09:52:32.355Z,24.90
2017-06-15T09:55:00.515Z,25.40
2017-06-15T09:57:28.650Z,25.00
2017-06-15T09:59:56.834Z,23.90
2017-06-15T10:02:25.379Z,26.40
2017-06-15T10:04:53.479Z,26.80
2017-06-15T10:07:21.626Z,25.10
2017-06-15T10:09:49.694Z,24.30
2017-06-15T10:12:17.922Z,23.00
2017-06-15T10:14:45.986Z,23.10
2017-06-15T10:17:14.107Z,22.20
2017-06-15T10:19:42.181Z,22.20
2017-06-15T10:22:10.328Z,22.70
2017-06-15T10:24:38.438Z,22.30
2017-06-15T10:27:06.560Z,23.10
2017-06-15T10:29:34.692Z,23.20
2017-06-15T10:32:02.765Z,22.90
2017-06-15T10:34:30.938Z,23.80
2017-06-15T10:36:59.007Z,22.30
2017-06-15T10:39:27.075Z,23.50
2017-06-15T10:41:55.174Z,22.90
2017-06-15T10:44:23.229Z,23.00
2017-06-15T10:46:51.390Z,22.60
2017-06-15T10:49:19.534Z,21.20
2017-06-15T10:51:47.675Z,21.10
2017-06-15T10:54:15.845Z,22.50
2017-06-15T10:56:44.037Z,22.50
2017-06-15T10:59:12.194Z,21.30
2017-06-15T11:01:40.235Z,21.60
2017-06-15T11:04:08.322Z,22.40
2017-06-15T11:06:36.387Z,21.80
2017-06-15T11:09:04.454Z,21.30
2017-06-15T11:11:32.590Z,19.90
2017-06-15T11:14:00.750Z,20.50
2017-06-15T11:16:29.618Z,20.80
2017-06-15T11:18:57.675Z,20.90
2017-06-15T11:21:25.738Z,20.80
2017-06-15T11:23:53.883Z,20.50
2017-06-15T11:26:22.722Z,20.70
2017-06-15T11:28:50.830Z,20.60
2017-06-15T11:31:19.630Z,19.30
2017-06-15T11:33:47.732Z,19.60
2017-06-15T11:36:15.786Z,18.90
2017-06-15T11:38:43.903Z,18.50
2017-06-15T11:41:11.974Z,18.90
2017-06-15T11:43:40.026Z,18.80
2017-06-15T11:46:09.020Z,18.20
2017-06-15T11:48:37.083Z,19.00
2017-06-15T11:51:05.162Z,17.60
2017-06-15T11:53:33.626Z,18.30
2017-06-15T11:56:01.719Z,19.20
2017-06-15T11:58:31.551Z,18.40
2017-06-15T12:01:00.131Z,17.40
2017-06-15T12:03:28.193Z,17.90
2017-06-15T12:05:56.282Z,17.40
2017-06-15T12:08:24.358Z,18.10
2017-06-15T12:10:53.178Z,17.30
2017-06-15T12:13:21.274Z,18.20
2017-06-15T12:15:50.995Z,17.70
2017-06-15T12:18:19.273Z,17.60
2017-06-15T12:20:48.062Z,18.60
2017-06-15T12:23:16.156Z,18.40
2017-06-15T12:25:44.260Z,19.00
2017-06-15T12:28:12.335Z,17.40
2017-06-15T12:30:41.192Z,18.10
2017-06-15T12:33:09.329Z,16.90
2017-06-15T12:35:37.423Z,17.30
2017-06-15T12:38:05.542Z,16.60
2017-06-15T12:40:34.058Z,16.50
2017-06-15T12:43:02.114Z,16.70
2017-06-15T12:45:30.170Z,15.30
2017-06-15T12:47:58.253Z,15.70
2017-06-15T12:50:28.874Z,16.10
2017-06-15T12:52:57.385Z,15.20
2017-06-15T12:55:25.843Z,15.20
2017-06-15T12:57:54.351Z,14.90
2017-06-15T13:00:22.426Z,15.60
2017-06-15T13:02:50.503Z,15.60
2017-06-15T13:05:18.571Z,15.10
2017-06-15T13:07:46.678Z,16.10
2017-06-15T13:10:15.201Z,14.30
2017-06-15T13:12:44.283Z,15.00
2017-06-15T13:15:13.065Z,13.90
2017-06-15T13:17:41.898Z,14.30
2017-06-15T13:20:10.079Z,14.20
2017-06-15T13:22:38.210Z,14.00
2017-06-15T13:25:06.268Z,13.90
2017-06-15T13:27:35.131Z,14.30
2017-06-15T13:30:03.186Z,13.40
2017-06-15T13:32:31.242Z,13.60
2017-06-15T13:34:59.328Z,14.10
2017-06-15T13:37:27.398Z,15.60
2017-06-15T13:39:55.469Z,15.20
2017-06-15T13:42:23.522Z,14.80
2017-06-15T13:44:51.603Z,14.70
2017-06-15T13:47:19.658Z,16.30
2017-06-15T13:49:47.751Z,15.50
2017-06-15T13:52:16.758Z,16.30
2017-06-15T13:54:44.837Z,14.40
2017-06-15T13:57:12.898Z,14.30
2017-06-15T13:59:40.994Z,15.00
2017-06-15T14:02:09.140Z,15.30
2017-06-15T14:04:37.210Z,15.50
2017-06-15T14:07:05.286Z,16.10
2017-06-15T14:09:33.371Z,15.70
2017-06-15T14:12:01.425Z,16.50
2017-06-15T14:14:29.558Z,16.70
2017-06-15T14:16:58.377Z,17.70
2017-06-15T14:19:26.469Z,16.80
2017-06-15T14:21:54.630Z,17.40
2017-06-15T14:24:22.703Z,18.40
2017-06-15T14:26:50.794Z,19.50
2017-06-15T14:29:18.946Z,19.80
2017-06-15T14:31:47.410Z,19.70
2017-06-15T14:34:15.502Z,20.20
2017-06-15T14:36:43.677Z,19.40
2017-06-15T14:39:11.746Z,19.70
2017-06-15T14:41:39.830Z,20.00
2017-06-15T14:44:07.902Z,20.90
2017-06-15T14:46:35.985Z,19.70
2017-06-15T14:49:04.047Z,19.20
2017-06-15T14:51:32.136Z,19.40
2017-06-15T14:54:00.207Z,20.50
2017-06-15T14:56:28.254Z,20.90
2017-06-15T14:58:56.334Z,21.90
2017-06-15T15:01:25.158Z,21.80
2017-06-15T15:03:54.023Z,21.90
2017-06-15T15:06:22.087Z,21.40
2017-06-15T15:09:02.194Z,21.40
2017-06-15T15:11:31.038Z,21.10
2017-06-15T15:13:59.118Z,21.10
2017-06-15T15:16:27.263Z,20.40
2017-06-15T15:18:55.364Z,20.60
2017-06-15T15:21:23.813Z,20.00
2017-06-15T15:23:51.891Z,20.40
2017-06-15T15:26:19.974Z,21.60
2017-06-15T15:28:48.050Z,21.30
2017-06-15T15:31:16.906Z,21.60
2017-06-15T15:33:44.967Z,21.80
2017-06-15T15:36:13.023Z,22.40
2017-06-15T15:38:41.174Z,22.80
2017-06-15T15:41:09.234Z,23.20
2017-06-15T15:43:37.312Z,23.30
2017-06-15T15:46:05.371Z,23.70
2017-06-15T15:48:33.442Z,24.10
2017-06-15T15:51:01.522Z,24.60
2017-06-15T15:53:29.574Z,25.10
2017-06-15T15:55:57.659Z,25.40
2017-06-15T15:58:26.102Z,25.30
2017-06-15T16:00:54.194Z,25.40
2017-06-15T16:03:22.249Z,25.80
2017-06-15T16:05:50.329Z,25.50
2017-06-15T16:08:18.434Z,26.00
2017-06-15T16:10:46.585Z,25.60
2017-06-15T16:13:14.642Z,25.80
2017-06-15T16:15:42.735Z,26.30
2017-06-15T16:18:11.186Z,26.30
2017-06-15T16:20:39.283Z,26.40
2017-06-15T16:23:07.365Z,26.60
2017-06-15T16:25:35.958Z,26.90
2017-06-15T16:28:04.114Z,26.90
2017-06-15T16:30:32.186Z,26.00
2017-06-15T16:33:00.266Z,26.30
2017-06-15T16:35:28.737Z,26.80
2017-06-15T16:37:56.921Z,27.20
2017-06-15T16:40:24.982Z,26.90
2017-06-15T16:42:53.058Z,27.20
2017-06-15T16:45:21.130Z,27.30
2017-06-15T16:47:49.306Z,27.60
2017-06-15T16:50:17.360Z,28.00
2017-06-15T16:52:45.414Z,28.00
2017-06-15T16:55:13.522Z,28.30
2017-06-15T16:57:41.594Z,28.40
2017-06-15T17:00:09.678Z,28.70
2017-06-15T17:02:37.734Z,28.50
2017-06-15T17:05:05.811Z,28.50
2017-06-15T17:07:34.286Z,28.50
2017-06-15T17:10:02.338Z,28.60
2017-06-15T17:12:30.417Z,29.70
2017-06-15T17:14:58.474Z,30.00
2017-06-15T17:17:26.558Z,30.00
2017-06-15T17:19:54.610Z,30.00
2017-06-15T17:22:22.666Z,33.30
2017-06-15T17:24:51.510Z,36.20
2017-06-15T17:27:19.562Z,39.70
2017-06-15T17:29:47.645Z,43.20
2017-06-15T17:32:16.098Z,44.30
2017-06-15T17:34:44.958Z,46.80
2017-06-15T17:37:13.018Z,45.70
2017-06-15T17:39:41.074Z,45.70
2017-06-15T17:42:09.542Z,45.80
2017-06-15T17:44:37.598Z,46.00
2017-06-15T17:47:05.689Z,43.70
2017-06-15T17:49:33.742Z,43.20
2017-06-15T17:52:01.809Z,44.10
2017-06-15T17:54:29.894Z,44.10
2017-06-15T17:56:58.378Z,44.30
2017-06-15T17:59:26.437Z,43.30
2017-06-15T18:01:54.506Z,42.80
2017-06-15T18:04:22.582Z,42.90
2017-06-15T18:06:51.076Z,41.90
2017-06-15T18:09:19.536Z,45.80
2017-06-15T18:11:47.586Z,44.40
2017-06-15T18:14:16.478Z,45.50
2017-06-15T18:16:45.347Z,45.90
2017-06-15T18:19:13.404Z,45.80
2017-06-15T18:21:41.490Z,47.10
2017-06-15T18:24:09.546Z,47.40
2017-06-15T18:26:37.606Z,47.40
2017-06-15T18:29:05.685Z,47.40
2017-06-15T18:31:33.763Z,47.50
2017-06-15T18:34:01.854Z,46.60
2017-06-15T18:36:30.719Z,46.50
2017-06-15T18:38:58.765Z,46.30
2017-06-15T18:41:26.849Z,46.60
2017-06-15T18:43:54.969Z,46.90
2017-06-15T18:46:23.029Z,47.40
2017-06-15T18:48:51.846Z,47.90
2017-06-15T18:51:19.939Z,48.70
2017-06-15T18:53:47.998Z,49.10
2017-06-15T18:56:16.841Z,48.80
2017-06-15T18:58:44.919Z,47.40
2017-06-15T19:01:13.001Z,47.20
2017-06-15T19:03:41.061Z,46.20
2017-06-15T19:06:09.574Z,45.60
2017-06-15T19:08:38.411Z,45.80
2017-06-15T19:11:06.466Z,45.20
2017-06-15T19:13:34.604Z,44.80
2017-06-15T19:16:02.630Z,44.60
2017-06-15T19:18:31.091Z,43.90
2017-06-15T19:20:59.570Z,44.80
2017-06-15T19:23:28.018Z,45.70
2017-06-15T19:25:56.858Z,46.80
2017-06-15T19:28:24.940Z,46.70
2017-06-15T19:30:52.990Z,46.90
2017-06-15T19:33:21.078Z,47.40
2017-06-15T19:35:49.158Z,47.60
2017-06-15T19:38:17.214Z,47.90
2017-06-15T19:40:45.299Z,48.00
2017-06-15T19:43:13.758Z,48.00
2017-06-15T19:45:42.211Z,48.10
2017-06-15T19:48:11.055Z,48.90
2017-06-15T19:50:39.502Z,47.90
2017-06-15T19:53:07.597Z,47.50
2017-06-15T19:55:36.046Z,47.90
2017-06-15T19:58:04.102Z,48.50
2017-06-15T20:00:32.990Z,49.50
2017-06-15T20:03:01.837Z,50.00
2017-06-15T20:05:29.934Z,49.80
2017-06-15T20:07:57.994Z,49.70
2017-06-15T20:10:26.470Z,49.70
2017-06-15T20:12:55.290Z,50.00
2017-06-15T20:15:24.143Z,50.30
2017-06-15T20:17:52.594Z,49.90
2017-06-15T20:20:20.649Z,49.70
2017-06-15T20:22:49.541Z,49.70
2017-06-15T20:25:18.006Z,49.00
2017-06-15T20:27:46.070Z,49.10
2017-06-15T20:30:15.007Z,49.10
2017-06-15T20:32:43.317Z,49.60
2017-06-15T20:35:11.362Z,49.90
2017-06-15T20:37:39.456Z,50.10
2017-06-15T20:40:07.523Z,50.00
2017-06-15T20:42:35.610Z,50.60
2017-06-15T20:45:03.659Z,50.80
2017-06-15T20:47:31.714Z,50.70
2017-06-15T20:49:59.794Z,50.60
2017-06-15T20:52:27.850Z,50.70
2017-06-15T20:54:55.951Z,50.90
2017-06-15T20:57:25.373Z,51.30
2017-06-15T20:59:53.430Z,51.70
2017-06-15T21:02:21.514Z,52.10
2017-06-15T21:04:49.593Z,53.10
2017-06-15T21:07:17.665Z,53.30
2017-06-15T21:09:45.723Z,53.10
2017-06-15T21:12:13.810Z,53.10
2017-06-15T21:14:41.889Z,53.10
2017-06-15T21:17:09.942Z,53.10
2017-06-15T21:19:38.021Z,53.20
2017-06-15T21:22:06.081Z,53.20
2017-06-15T21:24:34.166Z,53.10
2017-06-15T21:27:02.222Z,53.30
2017-06-15T21:29:30.282Z,53.70
2017-06-15T21:31:58.378Z,53.90
2017-06-15T21:34:26.514Z,53.90
2017-06-15T21:36:54.565Z,54.10
2017-06-15T21:39:22.623Z,54.30
2017-06-15T21:41:51.478Z,54.30
2017-06-15T21:44:19.530Z,54.30
2017-06-15T21:46:47.585Z,54.60
2017-06-15T21:49:15.662Z,54.80
2017-06-15T21:51:43.741Z,54.70
2017-06-15T21:54:11.818Z,54.80
2017-06-15T21:56:39.874Z,54.80
2017-06-15T21:59:07.993Z,54.90
2017-06-15T22:01:36.050Z,55.20
2017-06-15T22:04:04.112Z,55.10
2017-06-15T22:06:32.166Z,55.30
2017-06-15T22:09:00.246Z,55.30
2017-06-15T22:11:28.306Z,55.30
2017-06-15T22:13:56.386Z,55.60
2017-06-15T22:16:25.389Z,56.00
2017-06-15T22:18:53.842Z,56.40
2017-06-15T22:21:21.923Z,56.30
2017-06-15T22:23:49.973Z,56.80
2017-06-15T22:26:18.815Z,57.30
2017-06-15T22:28:46.875Z,56.90
2017-06-15T22:31:14.970Z,56.90
2017-06-15T22:33:43.024Z,57.30
2017-06-15T22:36:11.102Z,57.30
2017-06-15T22:38:39.174Z,57.50
2017-06-15T22:41:07.234Z,57.50
2017-06-15T22:43:35.310Z,57.80
2017-06-15T22:46:03.362Z,57.80
2017-06-15T22:48:31.438Z,58.30
2017-06-15T22:50:59.510Z,58.40
2017-06-15T22:53:27.566Z,58.70
2017-06-15T22:55:55.654Z,58.40
2017-06-15T22:58:24.486Z,58.80
2017-06-15T23:00:52.551Z,58.80
2017-06-15T23:03:32.381Z,59.20
2017-06-15T23:06:00.447Z,59.50
2017-06-15T23:08:28.527Z,59.90
2017-06-15T23:10:56.578Z,60.00
2017-06-15T23:13:24.694Z,60.00
2017-06-15T23:15:52.750Z,60.10
2017-06-15T23:18:21.206Z,59.70
2017-06-15T23:20:49.282Z,59.90
2017-06-15T23:23:17.334Z,52.90
2017-06-15T23:25:45.410Z,50.10
2017-06-15T23:28:13.466Z,47.60
2017-06-15T23:30:42.303Z,44.90
2017-06-15T23:33:10.360Z,43.60
2017-06-15T23:35:38.438Z,43.30
2017-06-15T23:38:06.491Z,43.30
2017-06-15T23:40:34.570Z,43.20
2017-06-15T23:43:02.630Z,42.30
2017-06-15T23:45:30.698Z,42.40
2017-06-15T23:47:58.757Z,42.00
2017-06-15T23:50:27.598Z,42.50
2017-06-15T23:52:55.674Z,42.30
2017-06-15T23:55:24.498Z,43.00
2017-06-15T23:57:52.569Z,43.00
